createdAt,value
2022-09-26T00:00:56.485Z,9.82
2022-09-26T00:03:22.725Z,9.91
2022-09-26T00:05:48.870Z,9.96
2022-09-26T00:08:15.032Z,10.09
2022-09-26T00:10:41.226Z,10.09
2022-09-26T00:13:07.396Z,10.04
2022-09-26T00:15:33.610Z,9.89
2022-09-26T00:17:59.735Z,9.61
2022-09-26T00:20:25.881Z,9.68
2022-09-26T00:22:52.057Z,9.62
2022-09-26T00:25:18.157Z,9.66
2022-09-26T00:27:44.240Z,9.73
2022-09-26T00:30:10.344Z,9.69
2022-09-26T00:32:36.447Z,9.78
2022-09-26T00:35:02.538Z,9.81
2022-09-26T00:37:28.641Z,9.78
2022-09-26T00:39:54.743Z,9.82
2022-09-26T00:42:20.835Z,9.81
2022-09-26T00:44:46.941Z,9.91
2022-09-26T00:47:13.039Z,9.93
2022-09-26T00:49:39.133Z,9.98
2022-09-26T00:52:05.230Z,10.10
2022-09-26T00:54:31.316Z,10.16
2022-09-26T00:56:57.412Z,10.14
2022-09-26T00:59:23.829Z,10.12
2022-09-26T01:01:50.039Z,10.13
2022-09-26T01:04:16.215Z,10.05
2022-09-26T01:06:42.352Z,10.05
2022-09-26T01:09:08.492Z,10.07
2022-09-26T01:11:34.663Z,9.98
2022-09-26T01:14:00.766Z,9.91
2022-09-26T01:16:26.889Z,9.90
2022-09-26T01:18:53.007Z,10.02
2022-09-26T01:21:19.132Z,9.98
2022-09-26T01:23:45.227Z,9.96
2022-09-26T01:26:11.348Z,10.02
2022-09-26T01:28:37.465Z,10.06
2022-09-26T01:31:03.622Z,9.97
2022-09-26T01:33:29.765Z,9.95
2022-09-26T01:35:55.878Z,10.03
2022-09-26T01:38:21.960Z,9.98
2022-09-26T01:40:48.101Z,10.02
2022-09-26T01:43:14.233Z,9.94
2022-09-26T01:45:40.429Z,10.02
2022-09-26T01:48:06.560Z,10.15
2022-09-26T01:50:32.675Z,10.13
2022-09-26T01:52:58.751Z,10.14
2022-09-26T01:55:24.847Z,10.21
2022-09-26T01:57:50.966Z,10.22
2022-09-26T02:00:17.056Z,10.19
2022-09-26T02:02:43.236Z,10.26
2022-09-26T02:05:09.826Z,10.28
2022-09-26T02:07:35.919Z,10.29
2022-09-26T02:10:02.048Z,10.33
2022-09-26T02:12:28.149Z,10.32
2022-09-26T02:14:54.235Z,10.35
2022-09-26T02:17:20.332Z,10.34
2022-09-26T02:19:46.427Z,10.33
2022-09-26T02:22:12.528Z,10.39
2022-09-26T02:24:38.648Z,10.39
2022-09-26T02:27:04.751Z,10.36
2022-09-26T02:29:30.852Z,10.35
2022-09-26T02:31:57.025Z,10.34
2022-09-26T02:34:23.177Z,10.39
2022-09-26T02:36:49.270Z,10.42
2022-09-26T02:39:15.530Z,10.42
2022-09-26T02:41:41.825Z,10.45
2022-09-26T02:44:07.928Z,10.45
2022-09-26T02:46:34.024Z,10.38
2022-09-26T02:49:00.124Z,10.39
2022-09-26T02:51:26.200Z,10.46
2022-09-26T02:53:52.278Z,10.53
2022-09-26T02:56:18.406Z,10.44
2022-09-26T02:58:44.517Z,10.41
2022-09-26T03:01:10.723Z,10.42
2022-09-26T03:03:37.305Z,10.42
2022-09-26T03:06:03.401Z,10.37
2022-09-26T03:08:29.483Z,10.42
2022-09-26T03:10:55.596Z,10.50
2022-09-26T03:13:21.701Z,10.52
2022-09-26T03:15:47.796Z,10.42
2022-09-26T03:18:13.916Z,10.41
2022-09-26T03:20:40.011Z,10.48
2022-09-26T03:23:06.107Z,10.41
2022-09-26T03:25:32.199Z,10.20
2022-09-26T03:27:58.281Z,10.23
2022-09-26T03:30:24.527Z,10.37
2022-09-26T03:32:50.692Z,10.35
2022-09-26T03:35:16.778Z,10.33
2022-09-26T03:37:42.869Z,10.45
2022-09-26T03:40:08.979Z,10.33
2022-09-26T03:42:35.071Z,10.34
2022-09-26T03:45:01.174Z,10.43
2022-09-26T03:47:27.305Z,10.30
2022-09-26T03:49:53.397Z,10.31
2022-09-26T03:52:19.572Z,10.29
2022-09-26T03:54:45.681Z,10.30
2022-09-26T03:57:11.783Z,10.38
2022-09-26T03:59:37.905Z,10.30
2022-09-26T04:02:04.096Z,10.32
2022-09-26T04:04:30.303Z,10.19
2022-09-26T04:06:56.392Z,10.39
2022-09-26T04:09:22.833Z,10.48
2022-09-26T04:11:49.216Z,10.51
2022-09-26T04:14:15.302Z,10.39
2022-09-26T04:16:41.454Z,10.48
2022-09-26T04:19:07.564Z,10.47
2022-09-26T04:21:33.663Z,10.32
2022-09-26T04:23:59.781Z,10.15
2022-09-26T04:26:25.897Z,10.17
2022-09-26T04:28:51.984Z,10.17
2022-09-26T04:31:18.173Z,10.21
2022-09-26T04:33:44.315Z,10.14
2022-09-26T04:36:10.401Z,10.16
2022-09-26T04:38:36.513Z,10.17
2022-09-26T04:41:02.667Z,10.16
2022-09-26T04:43:28.799Z,10.12
2022-09-26T04:45:54.920Z,10.08
2022-09-26T04:48:21.042Z,10.05
2022-09-26T04:50:47.153Z,10.10
2022-09-26T04:53:13.263Z,10.06
2022-09-26T04:55:39.374Z,10.05
2022-09-26T04:58:05.459Z,10.04
2022-09-26T05:00:31.617Z,10.09
2022-09-26T05:02:57.739Z,10.17
2022-09-26T05:05:23.835Z,10.14
2022-09-26T05:07:49.951Z,10.16
2022-09-26T05:10:16.071Z,10.07
2022-09-26T05:12:42.170Z,10.16
2022-09-26T05:15:08.313Z,10.17
2022-09-26T05:17:34.409Z,10.28
2022-09-26T05:20:00.505Z,10.22
2022-09-26T05:22:26.619Z,10.24
2022-09-26T05:24:52.700Z,10.57
2022-09-26T05:27:18.814Z,10.67
2022-09-26T05:29:44.931Z,10.62
2022-09-26T05:32:11.029Z,10.64
2022-09-26T05:34:37.128Z,10.51
2022-09-26T05:37:03.266Z,10.57
2022-09-26T05:39:29.370Z,10.52
2022-09-26T05:41:55.460Z,10.53
2022-09-26T05:44:21.586Z,10.58
2022-09-26T05:46:47.718Z,10.54
2022-09-26T05:49:13.991Z,10.48
2022-09-26T05:51:40.145Z,10.59
2022-09-26T05:54:06.247Z,10.53
2022-09-26T05:56:32.325Z,10.49
2022-09-26T05:58:58.435Z,10.58
2022-09-26T06:01:24.697Z,10.26
2022-09-26T06:03:50.851Z,10.46
2022-09-26T06:06:16.972Z,10.52
2022-09-26T06:08:43.083Z,10.55
2022-09-26T06:11:09.183Z,10.47
2022-09-26T06:13:35.378Z,10.48
2022-09-26T06:16:01.541Z,10.45
2022-09-26T06:18:27.671Z,10.49
2022-09-26T06:20:53.779Z,10.54
2022-09-26T06:23:19.885Z,10.57
2022-09-26T06:25:45.975Z,10.53
2022-09-26T06:28:12.073Z,10.58
2022-09-26T06:30:38.171Z,10.57
2022-09-26T06:33:04.262Z,10.60
2022-09-26T06:35:30.364Z,10.60
2022-09-26T06:37:56.453Z,10.75
2022-09-26T06:40:22.624Z,10.64
2022-09-26T06:42:48.827Z,10.72
2022-09-26T06:45:14.910Z,10.79
2022-09-26T06:47:40.993Z,10.74
2022-09-26T06:50:07.108Z,10.61
2022-09-26T06:52:33.201Z,10.67
2022-09-26T06:54:59.286Z,10.71
2022-09-26T06:57:25.402Z,10.70
2022-09-26T06:59:51.506Z,10.78
2022-09-26T07:02:17.678Z,10.92
2022-09-26T07:04:43.855Z,11.21
2022-09-26T07:07:09.947Z,11.25
2022-09-26T07:09:36.050Z,11.18
2022-09-26T07:12:17.692Z,11.31
2022-09-26T07:14:43.817Z,11.34
2022-09-26T07:17:10.278Z,11.29
2022-09-26T07:19:36.375Z,11.39
2022-09-26T07:22:02.470Z,11.48
2022-09-26T07:24:28.586Z,11.68
2022-09-26T07:26:54.678Z,11.62
2022-09-26T07:29:20.766Z,11.57
2022-09-26T07:31:47.022Z,11.60
2022-09-26T07:34:17.794Z,11.58
2022-09-26T07:36:44.546Z,11.56
2022-09-26T07:39:10.666Z,11.70
2022-09-26T07:41:36.758Z,11.67
2022-09-26T07:46:49.035Z,11.91
2022-09-26T07:49:15.197Z,12.00
2022-09-26T07:51:41.303Z,12.02
2022-09-26T07:54:07.411Z,11.89
2022-09-26T07:56:33.497Z,12.07
2022-09-26T07:58:59.598Z,11.94
2022-09-26T08:01:25.781Z,11.97
2022-09-26T08:03:51.925Z,12.09
2022-09-26T08:06:18.009Z,12.20
2022-09-26T08:08:44.140Z,12.04
2022-09-26T08:11:10.238Z,12.08
2022-09-26T08:13:36.334Z,12.20
2022-09-26T08:16:02.521Z,12.14
2022-09-26T08:18:28.661Z,12.25
2022-09-26T08:20:54.754Z,12.18
2022-09-26T08:23:20.880Z,12.24
2022-09-26T08:25:46.961Z,12.18
2022-09-26T08:28:13.049Z,12.20
2022-09-26T08:30:39.183Z,12.27
2022-09-26T08:33:05.287Z,12.25
2022-09-26T08:35:31.384Z,12.37
2022-09-26T08:37:57.503Z,12.40
2022-09-26T08:40:23.646Z,12.19
2022-09-26T08:42:49.810Z,12.24
2022-09-26T08:45:15.962Z,12.28
2022-09-26T08:47:42.062Z,12.24
2022-09-26T08:50:08.167Z,12.30
2022-09-26T08:52:34.273Z,12.13
2022-09-26T08:55:00.368Z,12.22
2022-09-26T08:57:26.462Z,12.30
2022-09-26T08:59:52.616Z,12.31
2022-09-26T09:02:18.794Z,12.08
2022-09-26T09:04:44.949Z,12.29
2022-09-26T09:07:11.058Z,11.92
2022-09-26T09:09:37.166Z,11.93
2022-09-26T09:12:03.288Z,11.80
2022-09-26T09:14:29.412Z,11.79
2022-09-26T09:16:55.498Z,11.82
2022-09-26T09:19:21.595Z,11.76
2022-09-26T09:21:48.488Z,11.70
2022-09-26T09:24:14.694Z,11.65
2022-09-26T09:29:27.002Z,11.72
2022-09-26T09:31:53.128Z,12.14
2022-09-26T09:34:19.219Z,12.23
2022-09-26T09:36:45.337Z,12.08
2022-09-26T09:39:11.439Z,12.06
2022-09-26T09:41:37.524Z,12.05
2022-09-26T09:44:03.640Z,12.07
2022-09-26T09:46:29.825Z,12.15
2022-09-26T09:48:55.959Z,12.06
2022-09-26T09:51:22.066Z,12.14
2022-09-26T09:53:48.197Z,12.22
2022-09-26T09:56:14.290Z,12.16
2022-09-26T09:58:40.400Z,12.20
2022-09-26T10:01:06.482Z,12.29
2022-09-26T10:03:32.574Z,12.14
2022-09-26T10:05:58.688Z,12.12
2022-09-26T10:08:24.812Z,12.08
2022-09-26T10:10:50.890Z,11.98
2022-09-26T10:13:17.006Z,12.10
2022-09-26T10:15:43.186Z,12.15
2022-09-26T10:18:26.462Z,12.06
2022-09-26T10:20:53.269Z,12.18
2022-09-26T10:23:19.366Z,12.37
2022-09-26T10:25:45.552Z,12.22
2022-09-26T10:28:12.050Z,12.26
2022-09-26T10:30:38.148Z,12.43
2022-09-26T10:33:04.237Z,12.31
2022-09-26T10:35:30.408Z,12.24
2022-09-26T10:37:56.519Z,12.31
2022-09-26T10:40:22.684Z,12.34
2022-09-26T10:42:48.854Z,12.29
2022-09-26T10:45:14.948Z,12.40
2022-09-26T10:47:41.040Z,12.33
2022-09-26T10:50:07.149Z,12.50
2022-09-26T10:52:33.237Z,12.47
2022-09-26T10:54:59.321Z,12.32
2022-09-26T10:57:25.445Z,12.40
2022-09-26T10:59:51.530Z,12.43
2022-09-26T11:02:17.623Z,12.41
2022-09-26T11:04:43.734Z,12.39
2022-09-26T11:07:09.877Z,12.39
2022-09-26T11:09:35.963Z,12.40
2022-09-26T11:12:02.092Z,12.48
2022-09-26T11:14:28.607Z,12.57
2022-09-26T11:16:54.770Z,12.44
2022-09-26T11:19:20.881Z,12.65
2022-09-26T11:21:46.980Z,12.84
2022-09-26T11:24:13.130Z,12.68
2022-09-26T11:26:40.311Z,12.92
2022-09-26T11:29:06.434Z,12.92
2022-09-26T11:31:32.628Z,12.63
2022-09-26T11:33:58.842Z,12.48
2022-09-26T11:36:24.941Z,12.36
2022-09-26T11:38:51.037Z,12.20
2022-09-26T11:41:17.141Z,12.36
2022-09-26T11:43:43.237Z,12.66
2022-09-26T11:46:09.363Z,12.61
2022-09-26T11:48:35.514Z,12.70
2022-09-26T11:51:01.606Z,12.56
2022-09-26T11:53:27.709Z,12.47
2022-09-26T11:55:53.834Z,12.43
2022-09-26T11:58:19.931Z,12.26
2022-09-26T12:00:46.026Z,12.20
2022-09-26T12:03:12.225Z,12.46
2022-09-26T12:05:38.409Z,12.60
2022-09-26T12:08:04.557Z,12.64
2022-09-26T12:10:30.689Z,12.91
2022-09-26T12:12:56.782Z,13.02
2022-09-26T12:15:22.887Z,12.83
2022-09-26T12:17:49.018Z,12.99
2022-09-26T12:20:15.136Z,13.18
2022-09-26T12:22:41.225Z,13.22
2022-09-26T12:25:07.344Z,13.03
2022-09-26T12:27:33.460Z,13.27
2022-09-26T12:29:59.560Z,13.28
2022-09-26T12:32:25.672Z,13.41
2022-09-26T12:34:51.773Z,13.22
2022-09-26T12:37:17.874Z,12.89
2022-09-26T12:39:43.991Z,13.12
2022-09-26T12:42:10.084Z,13.18
2022-09-26T12:44:36.186Z,13.17
2022-09-26T12:47:02.310Z,13.36
2022-09-26T12:49:28.415Z,13.42
2022-09-26T12:51:54.500Z,13.28
2022-09-26T12:54:20.600Z,13.38
2022-09-26T12:56:46.681Z,13.51
2022-09-26T12:59:12.820Z,13.43
2022-09-26T13:01:39.030Z,13.48
2022-09-26T13:04:05.200Z,13.30
2022-09-26T13:06:31.320Z,13.57
2022-09-26T13:08:57.477Z,13.53
2022-09-26T13:11:23.574Z,13.63
2022-09-26T13:13:49.667Z,13.46
2022-09-26T13:16:15.803Z,13.33
2022-09-26T13:18:41.935Z,13.42
2022-09-26T13:21:08.038Z,13.32
2022-09-26T13:23:34.154Z,13.22
2022-09-26T13:26:00.254Z,13.20
2022-09-26T13:28:26.356Z,13.05
2022-09-26T13:30:53.063Z,12.98
2022-09-26T13:33:19.205Z,13.31
2022-09-26T13:35:45.313Z,13.08
2022-09-26T13:38:11.426Z,12.88
2022-09-26T13:40:37.579Z,12.83
2022-09-26T13:43:03.721Z,12.72
2022-09-26T13:45:29.841Z,12.77
2022-09-26T13:47:55.914Z,12.78
2022-09-26T13:50:22.005Z,12.46
2022-09-26T13:52:48.103Z,12.48
2022-09-26T13:55:14.194Z,12.36
2022-09-26T13:57:40.274Z,12.33
2022-09-26T14:00:06.465Z,12.23
2022-09-26T14:02:32.664Z,12.36
2022-09-26T14:04:58.785Z,12.37
2022-09-26T14:07:24.887Z,12.31
2022-09-26T14:09:50.980Z,12.51
2022-09-26T14:12:17.082Z,12.20
2022-09-26T14:14:43.181Z,12.31
2022-09-26T14:17:09.265Z,12.29
2022-09-26T14:19:35.387Z,12.32
2022-09-26T14:22:01.514Z,12.36
2022-09-26T14:24:27.627Z,12.40
2022-09-26T14:26:53.715Z,12.45
2022-09-26T14:29:19.986Z,12.63
2022-09-26T14:31:46.113Z,12.59
2022-09-26T14:34:12.272Z,12.54
2022-09-26T14:36:38.409Z,12.56
2022-09-26T14:39:04.523Z,12.41
2022-09-26T14:41:30.601Z,12.41
2022-09-26T14:43:56.725Z,12.31
2022-09-26T14:46:22.890Z,12.38
2022-09-26T14:48:49.035Z,12.40
2022-09-26T14:51:15.149Z,12.16
2022-09-26T14:53:41.237Z,12.19
2022-09-26T14:56:07.324Z,12.27
2022-09-26T14:58:33.439Z,12.32
2022-09-26T15:00:59.558Z,12.37
2022-09-26T15:03:25.644Z,12.33
2022-09-26T15:05:51.754Z,12.37
2022-09-26T15:08:17.851Z,12.29
2022-09-26T15:10:43.956Z,12.30
2022-09-26T15:13:10.069Z,12.07
2022-09-26T15:15:36.233Z,12.22
2022-09-26T15:18:02.372Z,12.08
2022-09-26T15:20:28.476Z,12.12
2022-09-26T15:22:54.581Z,12.31
2022-09-26T15:25:20.695Z,12.06
2022-09-26T15:27:46.813Z,11.96
2022-09-26T15:30:12.893Z,11.97
2022-09-26T15:32:39.093Z,11.84
2022-09-26T15:35:05.694Z,11.87
2022-09-26T15:37:31.822Z,11.81
2022-09-26T15:39:57.913Z,11.84
2022-09-26T15:42:24.019Z,11.81
2022-09-26T15:44:50.110Z,11.69
2022-09-26T15:47:16.203Z,11.67
2022-09-26T15:49:42.307Z,11.68
2022-09-26T15:52:08.398Z,11.54
2022-09-26T15:54:34.496Z,11.37
2022-09-26T15:57:00.617Z,11.49
2022-09-26T15:59:26.740Z,11.55
2022-09-26T16:01:52.891Z,11.65
2022-09-26T16:04:19.089Z,11.52
2022-09-26T16:06:45.181Z,11.58
2022-09-26T16:09:11.269Z,11.42
2022-09-26T16:11:37.398Z,11.39
2022-09-26T16:14:03.482Z,11.35
2022-09-26T16:16:29.568Z,11.37
2022-09-26T16:18:55.665Z,11.48
2022-09-26T16:21:21.749Z,11.68
2022-09-26T16:23:47.850Z,11.61
2022-09-26T16:26:13.971Z,11.48
2022-09-26T16:28:40.237Z,11.38
2022-09-26T16:31:06.462Z,11.41
2022-09-26T16:33:32.668Z,11.56
2022-09-26T16:35:58.790Z,11.57
2022-09-26T16:38:24.895Z,11.60
2022-09-26T16:40:51.314Z,11.41
2022-09-26T16:43:17.434Z,11.41
2022-09-26T16:45:43.548Z,11.45
2022-09-26T16:48:09.671Z,11.37
2022-09-26T16:50:35.779Z,11.39
2022-09-26T16:53:01.883Z,11.35
2022-09-26T16:55:28.022Z,11.31
2022-09-26T16:57:54.114Z,11.22
2022-09-26T17:00:20.229Z,11.15
2022-09-26T17:02:46.422Z,11.29
2022-09-26T17:05:12.575Z,11.21
2022-09-26T17:07:38.865Z,11.06
2022-09-26T17:10:05.054Z,11.19
2022-09-26T17:12:31.157Z,11.26
2022-09-26T17:14:57.259Z,11.08
2022-09-26T17:17:23.379Z,11.02
2022-09-26T17:19:49.471Z,11.06
2022-09-26T17:22:15.578Z,10.97
2022-09-26T17:24:41.700Z,10.86
2022-09-26T17:27:09.553Z,10.85
2022-09-26T17:29:35.660Z,10.91
2022-09-26T17:32:05.057Z,11.01
2022-09-26T17:34:33.642Z,10.89
2022-09-26T17:36:59.747Z,10.83
2022-09-26T17:39:26.719Z,10.77
2022-09-26T17:41:52.837Z,10.94
2022-09-26T17:44:18.940Z,10.96
2022-09-26T17:46:45.092Z,11.02
2022-09-26T17:49:11.258Z,10.90
2022-09-26T17:51:37.347Z,10.82
2022-09-26T17:54:03.476Z,10.85
2022-09-26T17:56:29.564Z,10.80
2022-09-26T17:58:55.662Z,10.81
2022-09-26T18:01:21.814Z,10.70
2022-09-26T18:03:47.941Z,10.70
2022-09-26T18:06:14.050Z,10.77
2022-09-26T18:08:40.170Z,10.80
2022-09-26T18:11:06.271Z,10.82
2022-09-26T18:13:32.363Z,10.68
2022-09-26T18:15:58.534Z,10.70
2022-09-26T18:18:24.674Z,10.71
2022-09-26T18:20:50.773Z,10.98
2022-09-26T18:23:16.927Z,10.92
2022-09-26T18:25:43.018Z,10.79
2022-09-26T18:28:09.113Z,10.74
2022-09-26T18:30:35.247Z,10.80
2022-09-26T18:33:01.351Z,10.81
2022-09-26T18:35:27.516Z,10.79
2022-09-26T18:37:56.202Z,10.78
2022-09-26T18:40:22.517Z,10.79
2022-09-26T18:42:48.673Z,10.81
2022-09-26T18:45:14.832Z,10.70
2022-09-26T18:47:40.930Z,10.78
2022-09-26T18:50:07.026Z,10.86
2022-09-26T18:52:33.287Z,10.76
2022-09-26T18:54:59.389Z,10.76
2022-09-26T18:57:26.629Z,10.83
2022-09-26T18:59:53.552Z,10.94
2022-09-26T19:02:19.763Z,10.77
2022-09-26T19:04:45.988Z,10.71
2022-09-26T19:07:12.101Z,10.65
2022-09-26T19:09:38.196Z,10.63
2022-09-26T19:12:04.305Z,10.69
2022-09-26T19:14:30.592Z,10.65
2022-09-26T19:16:56.703Z,10.72
2022-09-26T19:19:22.827Z,10.73
2022-09-26T19:21:48.937Z,10.76
2022-09-26T19:24:15.160Z,10.70
2022-09-26T19:26:41.264Z,10.66
2022-09-26T19:29:11.825Z,10.70
2022-09-26T19:31:38.232Z,10.70
2022-09-26T19:34:04.346Z,10.70
2022-09-26T19:36:30.452Z,10.61
2022-09-26T19:38:56.569Z,10.61
2022-09-26T19:41:22.666Z,10.73
2022-09-26T19:43:48.768Z,10.66
2022-09-26T19:46:14.906Z,10.56
2022-09-26T19:48:41.047Z,10.70
2022-09-26T19:51:07.530Z,10.72
2022-09-26T19:53:33.650Z,10.74
2022-09-26T19:55:59.768Z,10.73
2022-09-26T19:58:25.881Z,10.73
2022-09-26T20:00:51.979Z,10.78
2022-09-26T20:03:18.087Z,10.85
2022-09-26T20:05:44.181Z,10.80
2022-09-26T20:08:10.271Z,10.79
2022-09-26T20:10:36.368Z,10.75
2022-09-26T20:13:02.516Z,10.75
2022-09-26T20:15:28.618Z,10.78
2022-09-26T20:17:54.714Z,10.75
2022-09-26T20:20:20.836Z,10.86
2022-09-26T20:22:46.938Z,10.82
2022-09-26T20:25:13.034Z,10.74
2022-09-26T20:27:39.136Z,10.79
2022-09-26T20:30:05.220Z,10.73
2022-09-26T20:32:31.448Z,10.79
2022-09-26T20:34:57.591Z,10.57
2022-09-26T20:37:23.742Z,10.72
2022-09-26T20:39:49.853Z,10.62
2022-09-26T20:42:15.954Z,10.52
2022-09-26T20:44:42.060Z,10.53
2022-09-26T20:47:08.172Z,10.47
2022-09-26T20:49:35.186Z,10.51
2022-09-26T20:52:01.368Z,10.58
2022-09-26T20:54:27.509Z,10.55
2022-09-26T20:56:53.657Z,10.61
2022-09-26T20:59:19.798Z,10.56
2022-09-26T21:01:45.965Z,10.62
2022-09-26T21:04:12.125Z,10.58
2022-09-26T21:06:38.216Z,10.50
2022-09-26T21:09:04.301Z,10.53
2022-09-26T21:11:30.420Z,10.51
2022-09-26T21:13:56.508Z,10.53
2022-09-26T21:16:22.710Z,10.52
2022-09-26T21:18:48.864Z,10.59
2022-09-26T21:21:14.948Z,10.62
2022-09-26T21:23:41.061Z,10.49
2022-09-26T21:26:07.166Z,10.50
2022-09-26T21:28:33.260Z,10.50
2022-09-26T21:30:59.416Z,10.54
2022-09-26T21:33:25.574Z,10.59
2022-09-26T21:35:51.670Z,10.52
2022-09-26T21:38:17.776Z,10.51
2022-09-26T21:40:44.107Z,10.53
2022-09-26T21:43:10.253Z,10.73
2022-09-26T21:45:36.334Z,10.58
2022-09-26T21:48:02.518Z,10.58
2022-09-26T21:50:28.721Z,10.56
2022-09-26T21:52:54.816Z,10.60
2022-09-26T21:55:20.960Z,10.61
2022-09-26T21:57:47.042Z,10.59
2022-09-26T22:00:13.133Z,10.55
2022-09-26T22:02:39.343Z,10.58
2022-09-26T22:05:05.463Z,10.55
2022-09-26T22:07:31.563Z,10.47
2022-09-26T22:09:57.682Z,10.50
2022-09-26T22:12:24.058Z,10.48
2022-09-26T22:14:50.167Z,10.53
2022-09-26T22:17:16.294Z,10.53
2022-09-26T22:19:42.377Z,10.56
2022-09-26T22:22:08.467Z,10.48
2022-09-26T22:24:34.579Z,10.56
2022-09-26T22:27:00.670Z,10.68
2022-09-26T22:29:26.773Z,10.48
2022-09-26T22:31:52.884Z,10.47
2022-09-26T22:34:18.989Z,10.49
2022-09-26T22:36:45.065Z,10.54
2022-09-26T22:39:11.243Z,10.51
2022-09-26T22:41:37.362Z,10.55
2022-09-26T22:44:03.458Z,10.53
2022-09-26T22:46:29.933Z,10.50
2022-09-26T22:48:56.093Z,10.48
2022-09-26T22:51:22.190Z,10.43
2022-09-26T22:53:48.288Z,10.47
2022-09-26T22:56:14.378Z,10.47
2022-09-26T22:58:40.478Z,10.53
2022-09-26T23:01:06.708Z,10.48
2022-09-26T23:03:32.851Z,10.51
2022-09-26T23:05:58.942Z,10.51
2022-09-26T23:08:25.045Z,10.48
2022-09-26T23:10:51.222Z,10.44
2022-09-26T23:13:17.331Z,10.53
2022-09-26T23:15:43.445Z,10.48
2022-09-26T23:18:09.533Z,10.52
2022-09-26T23:20:35.616Z,10.57
2022-09-26T23:23:01.731Z,10.57
2022-09-26T23:25:27.851Z,10.62
2022-09-26T23:27:53.961Z,10.62
2022-09-26T23:30:20.073Z,10.56
2022-09-26T23:32:46.186Z,10.53
2022-09-26T23:35:12.278Z,10.54
2022-09-26T23:37:38.389Z,10.53
2022-09-26T23:40:04.510Z,10.43
2022-09-26T23:42:30.598Z,10.39
2022-09-26T23:44:56.706Z,10.06
2022-09-26T23:47:22.812Z,9.97
2022-09-26T23:49:48.914Z,9.91
2022-09-26T23:52:15.031Z,9.89
2022-09-26T23:54:41.129Z,9.71
2022-09-26T23:57:07.214Z,9.60
2022-09-26T23:59:33.414Z,9.69
